Time;durP1;ratioP1;P1;durP2;ratioP2;P2;SDS_P1;SDS_P2;PMS_P1;PMS_P2;Temp;Humidity;BMP_temperature;BMP_pressure;BME280_temperature;BME280_humidity;BME280_pressure;Samples;Min_cycle;Max_cycle;Signal;HPM_P1;HPM_P2
2023/08/17 00:01:17;;;;;;;13.10;11.90;;;;;;;21.10;100.00;99655.21;105913;1257;67971;-75
2023/08/17 00:03:44;;;;;;;11.40;10.40;;;;;;;21.06;100.00;99653.14;105946;1251;72685;-72
2023/08/17 00:06:11;;;;;;;13.20;11.90;;;;;;;21.04;100.00;99655.94;105800;1251;61103;-72
2023/08/17 00:08:38;;;;;;;11.90;10.60;;;;;;;21.02;100.00;99655.89;105710;1251;60515;-73
2023/08/17 00:11:04;;;;;;;12.10;11.00;;;;;;;21.00;100.00;99654.39;105800;1251;60476;-73
2023/08/17 00:13:31;;;;;;;12.20;11.10;;;;;;;20.99;100.00;99651.05;105680;1251;68031;-73
2023/08/17 00:15:57;;;;;;;12.40;11.20;;;;;;;20.98;100.00;99653.52;105766;1257;72812;-73
2023/08/17 00:18:24;;;;;;;11.90;10.80;;;;;;;20.98;100.00;99653.27;105917;1251;60895;-71
2023/08/17 00:20:51;;;;;;;13.30;12.00;;;;;;;20.98;100.00;99653.68;105818;1251;60409;-72
2023/08/17 00:23:17;;;;;;;13.00;11.60;;;;;;;20.94;100.00;99654.08;105788;1257;73944;-72
2023/08/17 00:25:44;;;;;;;13.30;11.40;;;;;;;20.89;100.00;99657.64;105737;1256;67783;-72
2023/08/17 00:28:11;;;;;;;14.60;13.20;;;;;;;20.87;100.00;99656.55;105797;1251;60508;-73
2023/08/17 00:30:38;;;;;;;14.40;11.60;;;;;;;20.89;100.00;99655.80;105679;1254;61887;-71
2023/08/17 00:33:05;;;;;;;12.50;11.40;;;;;;;20.96;100.00;99656.33;105830;1256;60528;-72
2023/08/17 00:35:32;;;;;;;11.80;10.70;;;;;;;21.00;100.00;99659.63;105827;1257;74371;-75
2023/08/17 00:37:59;;;;;;;11.40;10.30;;;;;;;21.01;100.00;99659.33;105836;1257;66574;-73
2023/08/17 00:40:26;;;;;;;12.80;11.00;;;;;;;20.98;100.00;99658.88;106044;1256;71464;-73
2023/08/17 00:42:53;;;;;;;13.20;11.00;;;;;;;20.94;100.00;99659.86;105735;1254;61673;-73
2023/08/17 00:45:22;;;;;;;12.30;11.00;;;;;;;20.91;100.00;99658.02;105606;1252;60445;-72
2023/08/17 00:47:48;;;;;;;12.20;10.90;;;;;;;20.90;100.00;99658.83;105607;1257;72255;-71
2023/08/17 00:50:15;;;;;;;13.90;11.90;;;;;;;20.87;100.00;99658.13;105740;1252;60422;-71
2023/08/17 00:52:42;;;;;;;12.90;11.60;;;;;;;20.82;100.00;99655.51;105835;1256;72596;-71
2023/08/17 00:55:09;;;;;;;13.40;11.10;;;;;;;20.80;100.00;99653.30;105729;1251;61994;-71
2023/08/17 00:57:35;;;;;;;13.10;11.50;;;;;;;20.81;100.00;99651.48;105460;1251;60591;-72
2023/08/17 01:00:04;;;;;;;11.70;10.40;;;;;;;20.85;100.00;99652.13;105838;1256;73708;-71
2023/08/17 01:02:33;;;;;;;13.90;11.90;;;;;;;20.96;100.00;99650.22;105670;1260;66405;-71
2023/08/17 01:05:00;;;;;;;11.40;10.30;;;;;;;21.04;100.00;99647.45;105593;1254;73165;-71
2023/08/17 01:07:28;;;;;;;12.20;11.10;;;;;;;21.10;100.00;99646.98;105770;1251;61341;-71
2023/08/17 01:09:55;;;;;;;11.10;10.10;;;;;;;21.08;100.00;99648.45;105604;1251;60406;-72
2023/08/17 01:12:32;;;;;;;12.30;11.00;;;;;;;21.00;100.00;99656.39;105610;1251;73704;-71
2023/08/17 01:15:07;;;;;;;14.20;12.70;;;;;;;20.84;100.00;99654.43;105752;1251;67704;-72
2023/08/17 01:17:48;;;;;;;13.60;12.50;;;;;;;20.76;100.00;99656.85;105672;1257;72620;-72
2023/08/17 01:20:16;;;;;;;13.80;12.40;;;;;;;20.74;100.00;99656.27;105644;1254;61868;-73
2023/08/17 01:22:45;;;;;;;14.20;12.30;;;;;;;20.77;100.00;99657.05;106033;1254;60441;-72
2023/08/17 01:25:12;;;;;;;14.70;12.90;;;;;;;20.82;100.00;99652.98;105929;1257;73619;-70
2023/08/17 01:27:40;;;;;;;14.80;13.30;;;;;;;20.87;100.00;99655.73;105656;1251;66796;-71
2023/08/17 01:30:08;;;;;;;14.20;12.90;;;;;;;20.88;100.00;99657.81;105630;1255;72579;-73
2023/08/17 01:32:47;;;;;;;13.90;12.60;;;;;;;20.87;100.00;99656.97;105689;1257;60654;-72
2023/08/17 01:35:16;;;;;;;13.80;12.60;;;;;;;20.86;100.00;99656.52;105807;1256;60426;-72
2023/08/17 01:37:44;;;;;;;13.20;12.00;;;;;;;20.85;100.00;99659.63;105818;1256;73920;-72
2023/08/17 01:40:13;;;;;;;14.40;12.70;;;;;;;20.84;100.00;99658.14;105780;1251;68064;-73
2023/08/17 01:42:40;;;;;;;14.20;12.90;;;;;;;20.83;100.00;99653.64;105823;1259;72939;-72
2023/08/17 01:45:06;;;;;;;16.60;11.40;;;;;;;20.83;100.00;99654.08;105694;1257;61368;-71
2023/08/17 01:47:33;;;;;;;18.70;12.20;;;;;;;20.84;100.00;99652.81;105833;1251;60329;-72
2023/08/17 01:50:00;;;;;;;12.90;11.60;;;;;;;20.84;100.00;99651.90;105711;1257;73513;-73
2023/08/17 01:52:28;;;;;;;14.10;12.70;;;;;;;20.86;100.00;99653.02;105913;1251;67867;-73
2023/08/17 01:54:56;;;;;;;14.60;13.20;;;;;;;20.86;100.00;99651.60;105822;1254;72870;-74
2023/08/17 01:57:23;;;;;;;13.90;11.90;;;;;;;20.84;100.00;99650.90;106001;1251;61616;-75
2023/08/17 01:59:50;;;;;;;13.70;12.30;;;;;;;20.82;100.00;99650.52;105794;1251;60377;-73
2023/08/17 02:02:17;;;;;;;13.20;11.90;;;;;;;20.80;100.00;99654.00;105831;1251;72291;-74
2023/08/17 02:04:44;;;;;;;14.70;13.20;;;;;;;20.74;100.00;99658.00;105843;1251;68276;-72
2023/08/17 02:07:10;;;;;;;14.80;13.40;;;;;;;20.63;100.00;99659.66;105890;1251;71461;-73
2023/08/17 02:09:37;;;;;;;14.60;13.10;;;;;;;20.47;100.00;99657.61;105864;1254;60488;-75
2023/08/17 02:12:05;;;;;;;14.10;12.70;;;;;;;20.32;100.00;99656.28;105661;1254;60469;-71
2023/08/17 02:14:32;;;;;;;14.00;12.00;;;;;;;20.23;100.00;99659.92;105790;1257;73891;-73
2023/08/17 02:16:58;;;;;;;13.40;12.10;;;;;;;20.22;100.00;99660.48;105862;1255;67937;-72
2023/08/17 02:19:27;;;;;;;14.20;12.90;;;;;;;20.24;100.00;99665.83;105723;1251;72593;-73
2023/08/17 02:21:54;;;;;;;13.10;11.70;;;;;;;20.25;100.00;99668.53;105606;1251;60491;-73
2023/08/17 02:24:20;;;;;;;13.50;12.00;;;;;;;20.24;100.00;99673.35;105940;1251;60505;-76
2023/08/17 02:26:47;;;;;;;13.10;11.90;;;;;;;20.24;100.00;99677.30;105899;1257;60325;-76
2023/08/17 02:29:13;;;;;;;13.70;12.50;;;;;;;20.22;100.00;99678.09;105907;1254;60479;-72
2023/08/17 02:31:40;;;;;;;13.90;12.60;;;;;;;20.20;100.00;99673.55;105911;1254;60441;-72
2023/08/17 02:34:07;;;;;;;13.90;12.60;;;;;;;20.19;100.00;99674.05;105883;1251;60451;-76
2023/08/17 02:36:34;;;;;;;14.50;13.10;;;;;;;20.18;100.00;99675.44;105906;1254;60412;-73
2023/08/17 02:39:03;;;;;;;13.80;12.40;;;;;;;20.17;100.00;99674.84;105701;1251;73710;-71
2023/08/17 02:41:31;;;;;;;14.30;12.90;;;;;;;20.13;100.00;99680.04;105805;1251;67606;-72
2023/08/17 02:43:58;;;;;;;14.00;12.80;;;;;;;20.08;100.00;99682.64;105838;1251;72587;-76
2023/08/17 02:46:24;;;;;;;12.40;11.30;;;;;;;20.02;100.00;99689.43;105976;1254;61949;-71
2023/08/17 02:48:52;;;;;;;12.80;11.70;;;;;;;19.95;100.00;99691.13;105609;1250;60531;-71
2023/08/17 02:51:19;;;;;;;12.90;11.80;;;;;;;19.87;100.00;99693.97;105701;1254;73793;-72
2023/08/17 02:53:45;;;;;;;14.00;12.80;;;;;;;19.82;100.00;99694.13;105902;1255;67779;-72
2023/08/17 02:56:12;;;;;;;15.10;13.70;;;;;;;19.79;100.00;99694.58;105834;1253;60543;-71
2023/08/17 02:58:42;;;;;;;15.40;12.60;;;;;;;19.80;100.00;99692.27;105505;1250;61742;-74
2023/08/17 03:01:09;;;;;;;19.80;13.50;;;;;;;19.82;100.00;99698.35;105779;1251;60322;-71
2023/08/17 03:03:36;;;;;;;16.10;14.30;;;;;;;19.86;100.00;99699.49;105886;1255;73838;-73
2023/08/17 03:06:03;;;;;;;14.00;12.70;;;;;;;19.91;100.00;99701.48;105889;1251;67883;-72
2023/08/17 03:08:29;;;;;;;13.80;12.60;;;;;;;19.97;100.00;99701.45;105790;1251;72645;-74
2023/08/17 03:10:56;;;;;;;14.00;12.70;;;;;;;20.10;100.00;99696.20;105883;1251;62041;-73
2023/08/17 03:13:23;;;;;;;17.40;13.00;;;;;;;20.21;100.00;99688.29;105885;1251;60757;-73
2023/08/17 03:15:50;;;;;;;14.50;13.10;;;;;;;20.32;100.00;99688.49;105907;1251;72600;-74
2023/08/17 03:18:16;;;;;;;13.50;12.20;;;;;;;20.40;100.00;99683.41;105937;1251;68404;-77
2023/08/17 03:20:45;;;;;;;12.90;11.90;;;;;;;20.46;100.00;99682.88;105847;1254;60437;-76
2023/08/17 03:23:12;;;;;;;14.30;12.80;;;;;;;20.51;100.00;99681.35;105733;1253;62113;-71
2023/08/17 03:25:38;;;;;;;14.10;12.30;;;;;;;20.56;100.00;99676.50;105686;1253;60438;-72
2023/08/17 03:28:05;;;;;;;13.40;12.10;;;;;;;20.61;100.00;99677.55;105720;1254;60601;-74
2023/08/17 03:30:32;;;;;;;12.90;11.60;;;;;;;20.67;100.00;99676.15;105923;1251;68162;-73
2023/08/17 03:32:59;;;;;;;14.00;12.40;;;;;;;20.74;100.00;99674.35;105775;1255;72585;-73
2023/08/17 03:35:25;;;;;;;13.70;12.30;;;;;;;20.82;100.00;99671.19;105875;1251;61910;-72
2023/08/17 03:37:52;;;;;;;13.40;12.10;;;;;;;20.91;100.00;99671.50;105848;1251;60846;-72
2023/08/17 03:40:19;;;;;;;12.30;11.20;;;;;;;21.01;100.00;99671.21;105858;1254;74874;-72
2023/08/17 03:42:46;;;;;;;12.60;11.40;;;;;;;21.11;100.00;99670.76;105800;1254;68190;-72
2023/08/17 03:45:13;;;;;;;13.20;10.70;;;;;;;21.18;100.00;99662.98;105594;1256;72354;-71
2023/08/17 03:47:39;;;;;;;12.60;11.50;;;;;;;21.27;100.00;99665.61;105549;1257;61682;-73
2023/08/17 03:50:07;;;;;;;12.20;11.00;;;;;;;21.35;100.00;99667.71;105812;1251;60403;-73
2023/08/17 03:52:34;;;;;;;13.40;12.10;;;;;;;21.43;100.00;99670.48;105859;1255;73725;-74
2023/08/17 03:55:01;;;;;;;12.70;11.60;;;;;;;21.52;100.00;99666.31;105860;1254;66419;-71
2023/08/17 03:57:27;;;;;;;12.50;11.20;;;;;;;21.67;100.00;99664.08;105538;1257;72822;-73
2023/08/17 03:59:54;;;;;;;12.50;11.40;;;;;;;21.81;100.00;99663.86;105766;1251;62005;-73
2023/08/17 04:02:21;;;;;;;11.80;10.70;;;;;;;21.97;100.00;99662.97;105802;1252;60419;-71
2023/08/17 04:04:48;;;;;;;12.80;11.40;;;;;;;22.14;100.00;99663.11;105644;1254;73974;-76
2023/08/17 04:07:21;;;;;;;12.40;11.30;;;;;;;22.31;100.00;99661.02;105828;1255;68869;-74
2023/08/17 04:09:48;;;;;;;11.90;10.80;;;;;;;22.48;100.00;99666.59;105880;1251;72377;-73
2023/08/17 04:12:14;;;;;;;12.50;10.70;;;;;;;22.68;100.00;99670.24;105799;1251;61934;-73
2023/08/17 04:14:41;;;;;;;12.30;11.30;;;;;;;22.89;100.00;99660.04;105881;1251;60392;-74
2023/08/17 04:17:08;;;;;;;12.50;11.40;;;;;;;23.09;100.00;99661.58;105739;1257;72749;-74
2023/08/17 04:19:34;;;;;;;12.50;11.40;;;;;;;23.34;100.00;99661.60;105877;1254;66698;-74
2023/08/17 04:22:01;;;;;;;12.40;11.20;;;;;;;23.61;100.00;99661.80;105734;1254;72482;-73
2023/08/17 04:24:28;;;;;;;12.60;10.50;;;;;;;23.88;100.00;99659.44;105792;1256;61819;-73
2023/08/17 04:26:55;;;;;;;11.70;10.80;;;;;;;24.12;100.00;99662.16;105904;1251;60526;-72
2023/08/17 04:29:22;;;;;;;11.90;10.70;;;;;;;24.23;100.00;99658.64;105812;1254;73869;-72
2023/08/17 04:31:48;;;;;;;11.40;10.40;;;;;;;24.36;100.00;99657.98;105814;1253;67769;-73
2023/08/17 04:34:15;;;;;;;12.00;10.60;;;;;;;24.52;100.00;99654.39;105905;1254;72664;-73
2023/08/17 04:36:42;;;;;;;12.10;10.30;;;;;;;24.76;100.00;99655.36;105926;1251;60603;-73
2023/08/17 04:39:09;;;;;;;12.30;11.00;;;;;;;25.04;100.00;99650.39;105867;1251;60486;-72
2023/08/17 04:41:35;;;;;;;10.70;9.80;;;;;;;25.30;100.00;99652.77;105671;1251;72683;-72
2023/08/17 04:44:04;;;;;;;9.90;8.80;;;;;;;25.54;100.00;99653.87;105838;1256;67840;-72
2023/08/17 04:46:30;;;;;;;13.00;8.90;;;;;;;25.77;100.00;99652.00;105669;1257;71333;-72
2023/08/17 04:48:57;;;;;;;10.50;9.60;;;;;;;25.96;100.00;99650.45;105730;1253;60440;-72
2023/08/17 04:51:24;;;;;;;10.50;9.70;;;;;;;26.13;100.00;99649.55;105692;1251;60527;-74
2023/08/17 04:53:51;;;;;;;12.20;10.00;;;;;;;26.31;100.00;99648.09;105993;1254;73907;-73
2023/08/17 04:56:18;;;;;;;10.30;9.40;;;;;;;26.50;100.00;99648.20;105946;1251;67917;-71
2023/08/17 04:58:46;;;;;;;10.40;9.60;;;;;;;26.71;100.00;99644.91;105802;1256;72548;-73
2023/08/17 05:01:13;;;;;;;9.90;8.90;;;;;;;26.85;100.00;99644.30;105870;1251;60778;-74
2023/08/17 05:03:40;;;;;;;9.70;8.70;;;;;;;26.98;100.00;99646.20;105876;1253;60472;-71
2023/08/17 05:06:07;;;;;;;9.50;8.10;;;;;;;27.05;100.00;99641.79;105792;1251;74406;-71
2023/08/17 05:08:33;;;;;;;9.10;8.20;;;;;;;27.07;100.00;99640.52;105962;1251;67893;-72
2023/08/17 05:11:00;;;;;;;8.50;7.70;;;;;;;27.10;100.00;99643.19;105726;1256;71369;-69
2023/08/17 05:13:27;;;;;;;9.40;8.50;;;;;;;27.19;100.00;99645.81;105615;1256;61147;-70
2023/08/17 05:15:56;;;;;;;11.20;8.50;;;;;;;27.33;100.00;99647.15;105716;1256;217555;-73
2023/08/17 05:18:23;;;;;;;9.00;8.20;;;;;;;27.43;100.00;99651.97;105541;1255;74148;-70
2023/08/17 05:20:49;;;;;;;9.90;8.40;;;;;;;27.55;100.00;99649.06;105461;1252;67587;-76
2023/08/17 05:23:17;;;;;;;9.60;8.60;;;;;;;27.58;100.00;99645.56;106029;1255;73273;-70
2023/08/17 05:25:47;;;;;;;8.60;7.80;;;;;;;27.52;100.00;99650.70;105754;1251;60375;-71
2023/08/17 05:28:14;;;;;;;9.10;8.20;;;;;;;27.50;100.00;99653.23;105845;1256;60431;-72
2023/08/17 05:30:41;;;;;;;8.10;7.30;;;;;;;27.56;100.00;99655.23;105977;1255;73935;-72
2023/08/17 05:33:08;;;;;;;8.00;7.30;;;;;;;27.54;100.00;99653.92;105884;1256;68097;-71
2023/08/17 05:35:34;;;;;;;8.00;7.50;;;;;;;27.40;100.00;99654.39;105753;1251;71274;-71
2023/08/17 05:38:02;;;;;;;8.70;7.80;;;;;;;27.35;100.00;99651.31;105946;1253;60424;-70
2023/08/17 05:40:30;;;;;;;8.00;7.40;;;;;;;27.40;100.00;99653.27;105737;1251;62279;-76
2023/08/17 05:42:57;;;;;;;9.70;8.90;;;;;;;27.52;100.00;99652.57;105896;1253;73686;-72
2023/08/17 05:45:24;;;;;;;9.20;8.30;;;;;;;27.62;100.00;99652.27;105711;1251;67855;-73
2023/08/17 05:47:52;;;;;;;8.80;8.00;;;;;;;27.67;100.00;99651.70;105924;1252;72489;-72
2023/08/17 05:50:18;;;;;;;8.80;7.90;;;;;;;27.76;100.00;99651.62;105763;1251;60903;-68
2023/08/17 05:52:45;;;;;;;9.00;7.90;;;;;;;27.93;100.00;99653.43;105644;1251;60464;-69
2023/08/17 05:55:11;;;;;;;8.40;7.70;;;;;;;28.23;100.00;99652.52;105710;1256;73816;-68
2023/08/17 05:57:38;;;;;;;9.60;8.50;;;;;;;28.56;100.00;99650.85;105736;1253;67726;-80
2023/08/17 06:00:08;;;;;;;8.90;8.10;;;;;;;28.93;100.00;99648.69;105773;1254;72364;-74
2023/08/17 06:02:39;;;;;;;9.00;7.80;;;;;;;29.75;100.00;99641.06;105921;1255;60435;-77
2023/08/17 06:05:07;;;;;;;8.80;7.20;;;;;;;30.43;100.00;99641.44;105852;1251;60449;-73
2023/08/17 06:07:34;;;;;;;8.20;7.50;;;;;;;30.76;100.00;99633.86;106066;1255;73718;-76
2023/08/17 06:10:04;;;;;;;7.30;6.60;;;;;;;31.42;100.00;99635.34;105934;1251;67862;-75
2023/08/17 06:12:30;;;;;;;7.80;7.10;;;;;;;32.29;98.50;99633.40;106039;1254;74137;-73
2023/08/17 06:14:57;;;;;;;10.00;7.20;;;;;;;33.12;92.36;99631.89;105997;1251;60538;-72
2023/08/17 06:17:24;;;;;;;8.40;7.50;;;;;;;33.81;86.00;99628.33;106020;1253;60444;-76
2023/08/17 06:19:51;;;;;;;7.10;6.50;;;;;;;34.30;80.69;99632.21;105853;1257;73716;-74
2023/08/17 06:22:18;;;;;;;7.80;6.20;;;;;;;34.65;76.37;99632.91;105976;1251;67849;-75
2023/08/17 06:24:45;;;;;;;7.00;6.30;;;;;;;35.07;74.42;99632.79;105924;1253;73049;-75
2023/08/17 06:27:14;;;;;;;6.30;5.70;;;;;;;35.51;70.76;99632.27;105881;1250;60486;-70
2023/08/17 06:29:40;;;;;;;6.80;5.40;;;;;;;36.10;67.13;99627.69;105908;1251;60464;-73
2023/08/17 06:32:08;;;;;;;7.40;5.50;;;;;;;36.56;62.32;99628.48;105869;1254;75211;-74
2023/08/17 06:34:35;;;;;;;5.70;5.20;;;;;;;36.75;57.96;99627.64;105924;1254;67888;-75
2023/08/17 06:37:04;;;;;;;6.40;5.80;;;;;;;36.87;57.43;99626.75;105978;1251;72747;-74
2023/08/17 06:39:31;;;;;;;5.50;5.00;;;;;;;36.77;55.85;99626.38;106296;1253;60454;-73
2023/08/17 06:41:58;;;;;;;5.70;5.30;;;;;;;36.04;56.75;99626.98;105935;1251;60425;-73
2023/08/17 06:44:25;;;;;;;7.00;5.60;;;;;;;35.10;60.20;99627.86;105928;1255;73829;-73
2023/08/17 06:46:52;;;;;;;6.60;5.70;;;;;;;34.33;63.94;99635.37;106005;1251;68262;-71
2023/08/17 06:49:18;;;;;;;6.30;5.50;;;;;;;33.79;68.59;99638.05;105874;1251;73410;-73
2023/08/17 06:51:45;;;;;;;7.00;6.50;;;;;;;33.54;71.19;99643.88;105839;1252;60435;-72
2023/08/17 06:54:12;;;;;;;7.00;4.90;;;;;;;33.29;73.48;99640.95;105922;1252;60517;-73
2023/08/17 06:56:38;;;;;;;6.40;5.70;;;;;;;33.18;74.90;99646.64;105890;1256;73778;-67
2023/08/17 06:59:05;;;;;;;10.90;5.60;;;;;;;33.02;75.14;99647.70;105624;1253;66773;-73
2023/08/17 07:01:31;;;;;;;5.60;5.00;;;;;;;32.74;77.41;99650.67;105863;1254;72678;-71
2023/08/17 07:03:58;;;;;;;7.70;5.40;;;;;;;32.64;77.02;99648.70;105886;1256;60416;-68
2023/08/17 07:06:25;;;;;;;8.90;5.00;;;;;;;32.54;77.58;99646.84;105619;1253;60608;-71
2023/08/17 07:08:52;;;;;;;5.60;4.60;;;;;;;32.70;77.69;99644.92;105601;1255;74210;-70
2023/08/17 07:11:19;;;;;;;5.50;4.70;;;;;;;33.68;75.49;99637.85;105823;1251;67951;-70
2023/08/17 07:13:46;;;;;;;5.70;5.20;;;;;;;35.29;69.67;99633.95;105692;1251;73612;-69
2023/08/17 07:16:13;;;;;;;8.70;4.50;;;;;;;36.91;59.88;99630.12;105690;1253;60594;-69
2023/08/17 07:18:40;;;;;;;8.10;5.00;;;;;;;37.74;51.79;99631.69;105765;1253;60531;-70
2023/08/17 07:21:09;;;;;;;8.50;4.30;;;;;;;38.51;49.08;99628.52;105662;1255;73881;-69
2023/08/17 07:23:36;;;;;;;5.00;4.20;;;;;;;39.31;44.80;99627.09;105534;1251;68054;-68
2023/08/17 07:26:02;;;;;;;5.30;3.40;;;;;;;39.98;42.44;99626.61;105770;1252;73181;-72
2023/08/17 07:28:29;;;;;;;6.60;4.00;;;;;;;39.99;39.58;99628.55;105805;1251;60508;-74
2023/08/17 07:30:56;;;;;;;4.80;4.00;;;;;;;39.56;39.36;99627.22;105922;1252;60346;-75
2023/08/17 07:33:22;;;;;;;5.20;4.10;;;;;;;39.32;40.73;99624.05;105911;1252;74154;-73
2023/08/17 07:35:49;;;;;;;4.30;3.80;;;;;;;39.72;39.59;99625.02;105961;1251;60413;-84
2023/08/17 07:38:15;;;;;;;4.70;3.80;;;;;;;39.76;37.26;99622.91;106051;1251;60460;-80
2023/08/17 07:40:43;;;;;;;5.00;3.90;;;;;;;39.47;37.87;99617.21;105941;1252;60514;-78
2023/08/17 07:43:10;;;;;;;4.40;3.90;;;;;;;39.54;38.39;99618.02;105927;1251;60453;-80
2023/08/17 07:45:36;;;;;;;5.00;4.30;;;;;;;39.92;38.05;99622.19;105863;1255;73633;-83
2023/08/17 07:48:03;;;;;;;4.80;4.40;;;;;;;39.60;38.20;99619.77;105886;1251;67946;-80
2023/08/17 07:50:30;;;;;;;7.50;4.30;;;;;;;39.17;39.20;99620.51;106055;1253;72420;-79
2023/08/17 07:52:56;;;;;;;4.50;4.00;;;;;;;39.04;38.73;99622.77;105910;1251;60460;-79
2023/08/17 07:55:23;;;;;;;7.50;4.00;;;;;;;38.60;39.39;99626.02;105808;1251;60507;-76
2023/08/17 07:57:50;;;;;;;4.00;3.40;;;;;;;38.64;39.40;99625.82;105892;1251;72991;-73
2023/08/17 08:00:17;;;;;;;4.50;3.90;;;;;;;38.46;38.96;99627.42;105799;1251;60594;-80
2023/08/17 08:02:44;;;;;;;7.30;3.40;;;;;;;38.24;39.89;99629.43;105923;1254;72645;-74
2023/08/17 08:05:13;;;;;;;5.30;3.00;;;;;;;37.82;39.46;99630.04;105874;1251;60409;-77
2023/08/17 08:07:39;;;;;;;3.90;3.50;;;;;;;37.08;40.76;99630.70;105809;1253;60429;-74
2023/08/17 08:10:06;;;;;;;3.50;3.10;;;;;;;36.27;42.58;99629.39;105944;1256;73682;-78
2023/08/17 08:12:33;;;;;;;3.60;3.30;;;;;;;35.66;44.77;99633.77;105919;1255;68491;-72
2023/08/17 08:15:00;;;;;;;5.80;3.20;;;;;;;35.16;45.33;99637.23;105896;1251;72716;-70
2023/08/17 08:17:26;;;;;;;4.10;3.30;;;;;;;34.72;46.60;99634.64;105872;1251;60541;-73
2023/08/17 08:19:54;;;;;;;5.70;3.50;;;;;;;34.73;48.38;99633.86;105790;1253;62146;-76
2023/08/17 08:22:21;;;;;;;4.50;3.60;;;;;;;34.97;49.10;99630.52;106049;1251;73912;-74
2023/08/17 08:24:48;;;;;;;4.20;3.40;;;;;;;35.13;49.04;99633.06;106035;1251;68373;-74
2023/08/17 08:27:14;;;;;;;3.90;3.30;;;;;;;35.17;49.02;99632.70;105929;1254;71365;-74
2023/08/17 08:29:41;;;;;;;8.50;3.60;;;;;;;34.99;49.41;99632.35;105923;1251;60513;-74
2023/08/17 08:32:08;;;;;;;5.60;2.90;;;;;;;34.91;51.08;99636.23;105968;1253;60432;-75
2023/08/17 08:34:34;;;;;;;3.80;3.50;;;;;;;34.97;50.10;99635.02;105981;1251;73167;-75
2023/08/17 08:37:01;;;;;;;3.80;3.20;;;;;;;34.93;51.34;99633.80;105811;1251;67776;-74
2023/08/17 08:39:28;;;;;;;6.10;3.40;;;;;;;34.92;51.03;99637.94;105933;1254;72704;-71
2023/08/17 08:41:55;;;;;;;3.70;2.90;;;;;;;35.07;52.16;99633.08;105903;1251;60603;-74
2023/08/17 08:44:21;;;;;;;3.50;3.10;;;;;;;35.49;51.77;99631.21;105994;1256;60420;-72
2023/08/17 08:46:48;;;;;;;6.30;3.00;;;;;;;35.65;48.12;99632.73;105739;1251;72564;-69
2023/08/17 08:49:19;;;;;;;3.00;2.70;;;;;;;35.57;47.12;99627.44;105947;1251;68079;-75
2023/08/17 08:51:48;;;;;;;3.90;2.90;;;;;;;35.50;46.85;99625.89;105981;1256;72755;-75
2023/08/17 08:54:23;;;;;;;6.30;2.80;;;;;;;35.67;46.78;99626.48;105915;1251;60566;-73
2023/08/17 08:56:55;;;;;;;3.50;2.50;;;;;;;35.86;46.30;99625.92;105635;1252;60662;-73
2023/08/17 08:59:22;;;;;;;2.80;2.60;;;;;;;36.21;45.86;99622.23;105941;1253;73846;-73
2023/08/17 09:01:48;;;;;;;2.50;2.30;;;;;;;36.66;45.04;99615.42;105780;1253;67827;-67
2023/08/17 09:04:17;;;;;;;4.00;2.20;;;;;;;37.05;43.50;99617.37;105812;1256;74392;-71
2023/08/17 09:06:44;;;;;;;7.40;3.40;;;;;;;37.04;42.72;99616.53;105811;1255;60338;-68
2023/08/17 09:09:11;;;;;;;3.00;2.60;;;;;;;36.97;42.22;99621.33;105685;1251;60610;-71
2023/08/17 09:11:37;;;;;;;3.60;2.30;;;;;;;36.94;42.51;99619.00;105691;1256;72850;-70
2023/08/17 09:14:07;;;;;;;3.60;2.40;;;;;;;36.90;42.65;99618.05;105653;1251;60546;-66
2023/08/17 09:16:34;;;;;;;5.80;2.60;;;;;;;37.10;42.69;99616.76;105760;1256;72030;-67
2023/08/17 09:19:01;;;;;;;3.30;2.60;;;;;;;37.47;42.05;99613.89;105548;1251;60423;-69
2023/08/17 09:21:31;;;;;;;2.80;2.50;;;;;;;37.67;41.21;99613.77;105625;1252;60425;-71
2023/08/17 09:23:58;;;;;;;6.80;2.60;;;;;;;37.45;41.56;99609.52;105905;1251;73820;-67
2023/08/17 09:26:32;;;;;;;3.70;2.80;;;;;;;37.31;41.63;99610.43;105777;1254;67949;-74
2023/08/17 09:28:59;;;;;;;3.10;2.30;;;;;;;37.25;41.73;99615.23;105833;1251;71109;-68
2023/08/17 09:31:26;;;;;;;3.40;2.70;;;;;;;37.30;41.79;99615.07;105642;1253;60722;-68
2023/08/17 09:33:53;;;;;;;2.80;2.60;;;;;;;37.38;39.79;99614.31;105572;1253;60539;-69
2023/08/17 09:36:22;;;;;;;4.80;2.40;;;;;;;37.36;39.01;99618.28;105685;1255;74475;-68
2023/08/17 09:38:51;;;;;;;3.70;2.60;;;;;;;37.10;38.36;99620.13;105733;1254;69554;-67
2023/08/17 09:41:18;;;;;;;3.00;2.70;;;;;;;36.96;40.58;99613.77;105754;1254;72828;-67
2023/08/17 09:43:48;;;;;;;3.20;2.60;;;;;;;36.93;41.02;99616.42;105763;1255;60734;-74
2023/08/17 09:46:15;;;;;;;5.60;3.10;;;;;;;36.90;41.77;99617.88;105868;1251;60404;-73
2023/08/17 09:48:45;;;;;;;2.80;2.50;;;;;;;36.93;41.47;99615.98;105978;1254;73537;-77
2023/08/17 09:51:15;;;;;;;4.30;3.00;;;;;;;36.97;41.34;99621.02;105802;1254;67931;-74
2023/08/17 09:53:42;;;;;;;3.00;2.80;;;;;;;37.16;41.98;99614.42;106021;1254;72643;-75
2023/08/17 09:56:10;;;;;;;2.80;2.40;;;;;;;37.59;41.03;99619.91;105992;1251;60409;-75
2023/08/17 09:58:42;;;;;;;4.10;2.70;;;;;;;37.57;41.38;99616.02;105877;1251;60344;-75
2023/08/17 10:01:09;;;;;;;3.50;3.20;;;;;;;37.68;40.85;99612.91;105915;1253;73703;-74
2023/08/17 10:03:37;;;;;;;3.20;2.90;;;;;;;37.66;40.60;99614.77;105784;1256;67889;-78
2023/08/17 10:06:09;;;;;;;3.30;3.00;;;;;;;37.63;40.63;99609.41;105910;1253;72821;-74
2023/08/17 10:08:38;;;;;;;3.30;3.00;;;;;;;37.71;41.54;99604.02;105948;1256;61279;-77
2023/08/17 10:11:07;;;;;;;3.00;2.80;;;;;;;37.97;40.80;99601.67;106022;1254;61222;-76
2023/08/17 10:13:35;;;;;;;3.60;2.80;;;;;;;38.07;41.08;99601.29;105894;1251;75251;-76
2023/08/17 10:16:24;;;;;;;3.40;3.10;;;;;;;38.04;40.12;99604.96;105885;1252;69112;-75
2023/08/17 10:19:29;;;;;;;4.00;3.00;;;;;;;37.55;40.60;99598.69;105902;1252;74333;-76
2023/08/17 10:22:12;;;;;;;7.70;3.30;;;;;;;37.45;42.13;99595.73;105773;1256;61213;-75
2023/08/17 10:24:45;;;;;;;4.90;3.40;;;;;;;37.33;41.27;99597.42;105829;1251;61255;-75
2023/08/17 10:27:12;;;;;;;4.70;3.50;;;;;;;36.85;41.67;99596.30;105845;1251;73414;-75
2023/08/17 10:29:39;;;;;;;3.30;3.00;;;;;;;36.62;42.31;99595.71;105824;1253;67819;-74
2023/08/17 10:32:09;;;;;;;3.60;3.30;;;;;;;36.44;41.89;99598.52;105812;1253;72511;-73
2023/08/17 10:34:36;;;;;;;4.40;3.50;;;;;;;36.00;42.89;99593.13;105877;1253;61299;-74
2023/08/17 10:37:02;;;;;;;3.50;3.20;;;;;;;35.76;43.69;99589.23;105816;1258;61217;-74
2023/08/17 10:39:29;;;;;;;3.80;3.50;;;;;;;35.69;44.27;99583.53;105758;1258;74539;-74
2023/08/17 10:41:57;;;;;;;3.90;3.50;;;;;;;35.80;44.91;99583.70;105957;1251;69213;-74
2023/08/17 10:44:41;;;;;;;4.10;3.60;;;;;;;36.08;45.11;99579.45;106006;1251;71097;-74
2023/08/17 10:47:28;;;;;;;7.10;3.80;;;;;;;36.23;43.43;99582.41;105932;1253;61216;-73
2023/08/17 10:50:07;;;;;;;3.20;2.90;;;;;;;36.16;43.28;99578.42;105817;1251;61334;-75
2023/08/17 10:52:35;;;;;;;3.40;3.10;;;;;;;35.93;42.33;99577.13;105836;1256;74658;-74
2023/08/17 10:55:06;;;;;;;3.20;2.90;;;;;;;35.51;43.08;99576.95;106206;1251;67761;-71
2023/08/17 10:57:33;;;;;;;3.70;3.20;;;;;;;35.28;43.98;99577.40;105931;1253;72609;-77
2023/08/17 11:00:16;;;;;;;3.40;2.90;;;;;;;35.20;44.55;99577.40;105942;1251;62398;-78
2023/08/17 11:02:55;;;;;;;3.20;2.90;;;;;;;35.14;45.64;99576.24;106006;1253;61263;-77
2023/08/17 11:05:43;;;;;;;6.70;3.10;;;;;;;35.21;45.87;99573.23;106003;1256;74434;-74
2023/08/17 11:08:14;;;;;;;3.20;2.90;;;;;;;35.26;45.81;99572.88;105869;1254;67815;-74
2023/08/17 11:10:42;;;;;;;3.20;2.90;;;;;;;35.14;46.39;99574.12;105757;1253;72533;-72
2023/08/17 11:13:14;;;;;;;2.90;2.70;;;;;;;34.90;45.74;99575.22;105837;1250;61374;-71
2023/08/17 11:15:45;;;;;;;3.10;2.70;;;;;;;34.55;45.47;99576.00;105850;1255;61238;-72
2023/08/17 11:18:11;;;;;;;2.90;2.70;;;;;;;34.45;46.28;99571.77;105858;1256;74613;-74